createdAt,value
2023-05-14T00:01:16.764Z,12.38
2023-05-14T00:03:43.986Z,12.42
2023-05-14T00:06:11.114Z,12.39
2023-05-14T00:08:37.759Z,12.34
2023-05-14T00:11:04.667Z,12.26
2023-05-14T00:13:31.371Z,12.22
2023-05-14T00:15:58.131Z,12.20
2023-05-14T00:18:24.945Z,12.04
2023-05-14T00:20:54.955Z,12.14
2023-05-14T00:23:22.875Z,12.28
2023-05-14T00:25:49.807Z,12.22
2023-05-14T00:28:16.855Z,12.14
2023-05-14T00:30:44.893Z,12.18
2023-05-14T00:33:11.738Z,12.29
2023-05-14T00:35:38.599Z,12.23
2023-05-14T00:40:46.045Z,12.30
2023-05-14T00:43:12.708Z,12.07
2023-05-14T00:45:39.615Z,12.08
2023-05-14T00:48:06.332Z,12.00
2023-05-14T00:50:34.756Z,11.93
2023-05-14T00:53:01.655Z,11.82
2023-05-14T00:55:30.935Z,11.81
2023-05-14T00:57:59.103Z,11.67
2023-05-14T01:00:26.199Z,11.77
2023-05-14T01:02:53.053Z,11.75
2023-05-14T01:05:20.231Z,11.73
2023-05-14T01:07:52.946Z,11.68
2023-05-14T01:10:33.018Z,11.56
2023-05-14T01:13:15.866Z,11.66
2023-05-14T01:15:45.126Z,11.60
2023-05-14T01:18:14.450Z,11.70
2023-05-14T01:20:41.142Z,11.68
2023-05-14T01:23:07.762Z,11.65
2023-05-14T01:25:34.436Z,11.69
2023-05-14T01:28:20.073Z,11.69
2023-05-14T01:30:50.863Z,11.71
2023-05-14T01:33:19.537Z,11.65
2023-05-14T01:35:46.694Z,11.69
2023-05-14T01:38:16.739Z,11.72
2023-05-14T01:40:45.677Z,11.68
2023-05-14T01:43:12.634Z,11.53
2023-05-14T01:45:39.422Z,11.59
2023-05-14T01:48:06.302Z,11.65
2023-05-14T01:50:33.169Z,11.65
2023-05-14T01:52:59.797Z,11.53
2023-05-14T01:55:26.474Z,11.63
2023-05-14T01:57:53.329Z,11.56
2023-05-14T02:00:21.251Z,11.55
2023-05-14T02:02:48.046Z,11.53
2023-05-14T02:05:14.748Z,11.41
2023-05-14T02:07:41.426Z,11.35
2023-05-14T02:10:08.672Z,11.33
2023-05-14T02:12:35.818Z,11.28
2023-05-14T02:15:04.029Z,11.26
2023-05-14T02:17:30.834Z,11.22
2023-05-14T02:19:57.514Z,11.24
2023-05-14T02:22:24.169Z,11.31
2023-05-14T02:24:51.632Z,11.27
2023-05-14T02:27:18.694Z,11.35
2023-05-14T02:29:45.384Z,11.25
2023-05-14T02:32:12.035Z,11.36
2023-05-14T02:34:38.899Z,11.28
2023-05-14T02:37:05.810Z,11.17
2023-05-14T02:39:32.456Z,11.18
2023-05-14T02:41:59.136Z,11.35
2023-05-14T02:44:25.786Z,11.48
2023-05-14T02:46:52.450Z,11.42
2023-05-14T02:49:19.234Z,11.48
2023-05-14T02:51:45.884Z,11.28
2023-05-14T02:54:12.566Z,11.25
2023-05-14T02:56:39.234Z,11.40
2023-05-14T02:59:05.874Z,11.50
2023-05-14T03:01:33.141Z,11.40
2023-05-14T03:04:00.178Z,11.35
2023-05-14T03:06:26.832Z,11.43
2023-05-14T03:11:31.302Z,11.44
2023-05-14T03:16:35.240Z,11.49
2023-05-14T03:19:02.065Z,11.47
2023-05-14T03:21:28.790Z,11.52
2023-05-14T03:23:55.466Z,11.34
2023-05-14T03:26:22.272Z,11.31
2023-05-14T03:28:48.918Z,11.39
2023-05-14T03:31:15.698Z,11.21
2023-05-14T03:33:42.535Z,11.15
2023-05-14T03:36:09.475Z,11.25
2023-05-14T03:38:36.168Z,11.22
2023-05-14T03:41:02.881Z,11.13
2023-05-14T03:43:29.543Z,11.29
2023-05-14T03:45:56.259Z,11.28
2023-05-14T03:48:23.042Z,11.23
2023-05-14T03:50:49.826Z,11.27
2023-05-14T03:53:17.013Z,11.26
2023-05-14T03:55:43.648Z,11.30
2023-05-14T03:58:14.624Z,11.25
2023-05-14T04:00:42.396Z,11.20
2023-05-14T04:03:09.364Z,11.22
2023-05-14T04:05:36.241Z,11.24
2023-05-14T04:08:02.894Z,11.32
2023-05-14T04:10:30.052Z,11.22
2023-05-14T04:12:56.751Z,11.31
2023-05-14T04:15:23.616Z,11.32
2023-05-14T04:17:50.250Z,11.10
2023-05-14T04:20:16.919Z,11.08
2023-05-14T04:22:43.558Z,11.20
2023-05-14T04:25:10.258Z,11.28
2023-05-14T04:27:36.898Z,11.28
2023-05-14T04:30:03.859Z,11.20
2023-05-14T04:32:30.531Z,11.21
2023-05-14T04:34:57.128Z,11.23
2023-05-14T04:37:23.849Z,11.23
2023-05-14T04:39:50.982Z,11.26
2023-05-14T04:42:17.656Z,11.24
2023-05-14T04:44:44.262Z,11.23
2023-05-14T04:47:10.853Z,11.12
2023-05-14T04:49:37.614Z,11.22
2023-05-14T04:52:04.437Z,10.94
2023-05-14T04:54:31.187Z,11.13
2023-05-14T04:56:57.904Z,11.17
2023-05-14T04:59:24.555Z,11.29
2023-05-14T05:01:51.934Z,11.30
2023-05-14T05:04:19.241Z,11.29
2023-05-14T05:06:45.958Z,11.42
2023-05-14T05:09:12.641Z,11.49
2023-05-14T05:11:39.328Z,11.35
2023-05-14T05:14:05.973Z,11.37
2023-05-14T05:16:32.970Z,11.36
2023-05-14T05:18:59.838Z,11.44
2023-05-14T05:21:26.736Z,11.43
2023-05-14T05:23:53.396Z,11.42
2023-05-14T05:26:20.014Z,11.39
2023-05-14T05:28:46.637Z,11.49
2023-05-14T05:31:13.295Z,11.46
2023-05-14T05:33:40.128Z,11.41
2023-05-14T05:36:07.112Z,11.43
2023-05-14T05:38:33.770Z,11.49
2023-05-14T05:41:00.481Z,11.42
2023-05-14T05:43:28.748Z,11.35
2023-05-14T05:45:55.378Z,11.56
2023-05-14T05:48:22.076Z,11.49
2023-05-14T05:50:49.582Z,11.62
2023-05-14T05:55:55.825Z,11.57
2023-05-14T05:58:22.775Z,11.61
2023-05-14T06:00:49.536Z,11.52
2023-05-14T06:03:16.315Z,11.56
2023-05-14T06:05:43.286Z,11.60
2023-05-14T06:08:10.066Z,11.66
2023-05-14T06:10:37.717Z,11.70
2023-05-14T06:13:04.604Z,11.80
2023-05-14T06:15:31.432Z,11.78
2023-05-14T06:20:31.765Z,11.66
2023-05-14T06:22:58.595Z,11.76
2023-05-14T06:25:25.236Z,11.64
2023-05-14T06:27:51.981Z,11.61
2023-05-14T06:30:18.634Z,11.78
2023-05-14T06:32:45.353Z,11.82
2023-05-14T06:35:12.101Z,11.77
2023-05-14T06:37:38.774Z,11.82
2023-05-14T06:40:06.200Z,11.88
2023-05-14T06:42:32.828Z,11.87
2023-05-14T06:44:59.603Z,11.90
2023-05-14T06:47:26.323Z,12.07
2023-05-14T06:49:52.992Z,12.20
2023-05-14T06:52:19.651Z,12.16
2023-05-14T06:54:46.318Z,12.21
2023-05-14T06:57:13.013Z,12.24
2023-05-14T06:59:39.647Z,12.41
2023-05-14T07:02:06.336Z,12.29
2023-05-14T07:04:33.180Z,12.31
2023-05-14T07:07:00.184Z,12.43
2023-05-14T07:09:26.922Z,12.43
2023-05-14T07:11:53.549Z,12.55
2023-05-14T07:14:20.287Z,12.71
2023-05-14T07:21:57.684Z,13.07
2023-05-14T07:24:24.465Z,12.93
2023-05-14T07:26:51.414Z,12.99
2023-05-14T07:29:18.142Z,13.09
2023-05-14T07:31:44.923Z,13.28
2023-05-14T07:34:12.915Z,13.40
2023-05-14T07:36:39.766Z,13.40
2023-05-14T07:39:06.731Z,13.44
2023-05-14T07:41:33.510Z,13.51
2023-05-14T07:44:00.247Z,13.63
2023-05-14T07:46:26.878Z,13.74
2023-05-14T07:48:53.518Z,13.73
2023-05-14T07:51:20.183Z,13.74
2023-05-14T07:53:46.821Z,13.81
2023-05-14T07:56:13.517Z,13.94
2023-05-14T07:58:41.642Z,13.99
2023-05-14T08:01:09.353Z,13.98
2023-05-14T08:03:36.114Z,14.03
2023-05-14T08:08:34.352Z,14.35
2023-05-14T08:11:01.163Z,14.62
2023-05-14T08:13:27.827Z,14.75
2023-05-14T08:15:54.462Z,14.65
2023-05-14T08:18:21.153Z,14.87
2023-05-14T08:20:48.575Z,14.88
2023-05-14T08:23:15.296Z,15.00
2023-05-14T08:25:41.958Z,15.05
2023-05-14T08:28:08.675Z,15.42
2023-05-14T08:30:35.389Z,15.76
2023-05-14T08:33:02.133Z,16.13
2023-05-14T08:35:28.881Z,16.07
2023-05-14T08:37:57.102Z,16.25
2023-05-14T08:40:24.174Z,16.16
2023-05-14T08:42:51.826Z,16.16
2023-05-14T08:45:25.838Z,16.14
2023-05-14T08:47:53.061Z,16.51
2023-05-14T08:50:22.759Z,16.75
2023-05-14T08:52:49.854Z,17.01
2023-05-14T08:55:16.517Z,16.67
2023-05-14T08:57:43.187Z,16.89
2023-05-14T09:00:13.444Z,16.77
2023-05-14T09:02:41.898Z,16.96
2023-05-14T09:05:12.642Z,17.49
2023-05-14T09:07:39.574Z,17.18
2023-05-14T09:10:06.989Z,16.85
2023-05-14T09:12:33.618Z,16.93
2023-05-14T09:15:00.447Z,17.00
2023-05-14T09:17:30.070Z,16.96
2023-05-14T09:19:56.792Z,16.85
2023-05-14T09:22:23.500Z,16.57
2023-05-14T09:25:04.237Z,16.64
2023-05-14T09:27:32.210Z,16.60
2023-05-14T09:30:14.375Z,16.50
2023-05-14T09:32:50.535Z,16.53
2023-05-14T09:35:19.914Z,16.67
2023-05-14T09:37:48.674Z,16.61
2023-05-14T09:40:16.361Z,16.57
2023-05-14T09:42:43.310Z,16.72
2023-05-14T09:45:11.056Z,16.88
2023-05-14T09:47:38.933Z,16.76
2023-05-14T09:50:06.861Z,16.80
2023-05-14T09:52:33.695Z,16.86
2023-05-14T09:55:01.126Z,17.03
2023-05-14T09:57:29.911Z,16.49
2023-05-14T09:59:56.556Z,16.89
2023-05-14T10:02:44.860Z,16.94
2023-05-14T10:05:13.455Z,16.88
2023-05-14T10:07:46.818Z,17.09
2023-05-14T10:10:19.972Z,17.07
2023-05-14T10:12:53.205Z,17.31
2023-05-14T10:15:29.350Z,17.33
2023-05-14T10:17:58.842Z,17.43
2023-05-14T10:20:27.507Z,17.49
2023-05-14T10:22:54.327Z,17.21
2023-05-14T10:25:22.007Z,17.17
2023-05-14T10:27:49.036Z,17.16
2023-05-14T10:30:15.809Z,17.31
2023-05-14T10:32:44.477Z,17.49
2023-05-14T10:35:20.773Z,17.65
2023-05-14T10:37:51.464Z,17.87
2023-05-14T10:40:19.583Z,17.82
2023-05-14T10:42:47.120Z,17.84
2023-05-14T10:45:15.304Z,17.79
2023-05-14T10:47:47.071Z,17.62
2023-05-14T10:50:17.865Z,17.74
2023-05-14T10:52:45.938Z,17.86
2023-05-14T10:55:15.047Z,18.12
2023-05-14T10:57:43.665Z,18.03
2023-05-14T11:00:11.653Z,18.10
2023-05-14T11:02:43.173Z,17.98
2023-05-14T11:05:14.212Z,17.90
2023-05-14T11:07:42.255Z,17.66
2023-05-14T11:10:17.274Z,17.39
2023-05-14T11:12:48.845Z,17.50
2023-05-14T11:15:23.486Z,17.32
2023-05-14T11:17:51.475Z,17.35
2023-05-14T11:20:18.952Z,17.67
2023-05-14T11:22:46.882Z,18.00
2023-05-14T11:25:15.147Z,18.23
2023-05-14T11:27:44.198Z,18.41
2023-05-14T11:30:19.133Z,18.01
2023-05-14T11:32:47.683Z,17.98
2023-05-14T11:35:15.726Z,18.04
2023-05-14T11:37:43.573Z,17.96
2023-05-14T11:40:19.312Z,18.20
2023-05-14T11:42:46.232Z,19.03
2023-05-14T11:45:14.080Z,19.20
2023-05-14T11:47:42.000Z,19.07
2023-05-14T11:50:09.818Z,18.88
2023-05-14T11:52:41.948Z,18.51
2023-05-14T11:55:12.986Z,18.74
2023-05-14T11:57:41.241Z,18.93
2023-05-14T12:00:09.706Z,19.20
2023-05-14T12:02:37.416Z,19.56
2023-05-14T12:05:07.436Z,19.63
2023-05-14T12:07:34.135Z,19.35
2023-05-14T12:10:03.004Z,19.31
2023-05-14T12:12:36.362Z,19.69
2023-05-14T12:15:10.472Z,19.94
2023-05-14T12:17:38.324Z,20.24
2023-05-14T12:20:08.326Z,20.15
2023-05-14T12:22:36.939Z,19.86
2023-05-14T12:25:04.133Z,19.51
2023-05-14T12:27:30.833Z,19.11
2023-05-14T12:32:36.226Z,18.63
2023-05-14T12:35:03.283Z,18.68
2023-05-14T12:37:31.229Z,18.41
2023-05-14T12:39:58.001Z,18.49
2023-05-14T12:42:24.686Z,18.39
2023-05-14T12:44:51.291Z,18.47
2023-05-14T12:47:18.231Z,18.44
2023-05-14T12:49:45.093Z,18.59
2023-05-14T12:54:43.660Z,18.76
2023-05-14T12:57:10.503Z,19.01
2023-05-14T12:59:37.235Z,19.05
2023-05-14T13:02:04.001Z,19.55
2023-05-14T13:04:30.744Z,19.31
2023-05-14T13:06:57.437Z,19.62
2023-05-14T13:09:24.135Z,19.64
2023-05-14T13:11:50.828Z,19.93
2023-05-14T13:14:18.400Z,19.97
2023-05-14T13:16:46.871Z,20.20
2023-05-14T13:19:13.656Z,20.49
2023-05-14T13:21:40.596Z,20.43
2023-05-14T13:24:07.405Z,20.54
2023-05-14T13:26:34.081Z,20.41
2023-05-14T13:29:00.679Z,20.10
2023-05-14T13:31:27.434Z,19.55
2023-05-14T13:33:54.303Z,19.74
2023-05-14T13:36:21.141Z,19.76
2023-05-14T13:38:47.990Z,19.83
2023-05-14T13:41:14.749Z,20.30
2023-05-14T13:43:41.442Z,20.34
2023-05-14T13:46:08.204Z,20.60
2023-05-14T13:48:36.618Z,20.66
2023-05-14T13:51:03.711Z,20.82
2023-05-14T13:53:30.782Z,20.60
2023-05-14T13:55:58.647Z,20.71
2023-05-14T13:58:25.903Z,20.60
2023-05-14T14:00:53.217Z,20.28
2023-05-14T14:03:20.198Z,20.15
2023-05-14T14:05:46.939Z,20.07
2023-05-14T14:10:48.910Z,20.29
2023-05-14T14:13:15.647Z,20.46
2023-05-14T14:15:42.869Z,20.47
2023-05-14T14:20:43.475Z,20.42
2023-05-14T14:23:10.118Z,20.41
2023-05-14T14:25:36.816Z,20.15
2023-05-14T14:28:03.506Z,19.93
2023-05-14T14:30:30.264Z,19.93
2023-05-14T14:32:57.049Z,19.76
2023-05-14T14:35:24.265Z,19.57
2023-05-14T14:37:53.826Z,19.24
2023-05-14T14:40:20.748Z,19.30
2023-05-14T14:42:47.413Z,19.16
2023-05-14T14:45:14.012Z,18.86
2023-05-14T14:47:45.354Z,18.89
2023-05-14T14:50:13.190Z,18.81
2023-05-14T14:52:45.443Z,18.68
2023-05-14T14:55:12.826Z,18.69
2023-05-14T14:57:39.595Z,18.69
2023-05-14T15:00:07.170Z,18.67
2023-05-14T15:02:34.325Z,18.71
2023-05-14T15:05:01.311Z,18.58
2023-05-14T15:07:28.218Z,18.37
2023-05-14T15:09:54.877Z,18.36
2023-05-14T15:12:21.508Z,17.94
2023-05-14T15:14:48.155Z,18.06
2023-05-14T15:17:14.804Z,18.00
2023-05-14T15:19:41.431Z,18.01
2023-05-14T15:22:08.089Z,17.94
2023-05-14T15:24:34.710Z,17.93
2023-05-14T15:27:01.324Z,17.90
2023-05-14T15:29:28.883Z,18.00
2023-05-14T15:31:55.589Z,18.01
2023-05-14T15:34:22.239Z,18.03
2023-05-14T15:36:48.879Z,18.03
2023-05-14T15:39:15.490Z,17.88
2023-05-14T15:41:42.206Z,18.01
2023-05-14T15:44:08.855Z,17.93
2023-05-14T15:46:35.953Z,18.03
2023-05-14T15:49:02.734Z,18.28
2023-05-14T15:51:29.493Z,18.46
2023-05-14T15:53:56.207Z,18.73
2023-05-14T15:56:23.233Z,18.76
2023-05-14T15:58:50.324Z,18.78
2023-05-14T16:01:17.179Z,18.93
2023-05-14T16:03:43.985Z,18.85
2023-05-14T16:06:11.814Z,18.76
2023-05-14T16:08:38.763Z,18.56
2023-05-14T16:11:06.533Z,18.51
2023-05-14T16:13:33.973Z,18.48
2023-05-14T16:16:01.490Z,18.47
2023-05-14T16:18:28.305Z,18.41
2023-05-14T16:20:55.317Z,18.44
2023-05-14T16:23:21.960Z,18.00
2023-05-14T16:25:49.201Z,18.12
2023-05-14T16:28:16.034Z,18.14
2023-05-14T16:30:42.760Z,18.16
2023-05-14T16:33:09.455Z,17.90
2023-05-14T16:35:36.250Z,17.96
2023-05-14T16:38:02.965Z,17.79
2023-05-14T16:40:29.748Z,17.84
2023-05-14T16:42:56.365Z,17.92
2023-05-14T16:45:23.370Z,17.92
2023-05-14T16:47:50.557Z,17.83
2023-05-14T16:50:17.393Z,17.75
2023-05-14T16:52:44.043Z,17.72
2023-05-14T16:55:11.081Z,17.72
2023-05-14T16:57:37.835Z,17.75
2023-05-14T17:00:06.351Z,17.87
2023-05-14T17:02:33.590Z,17.84
2023-05-14T17:05:00.426Z,17.61
2023-05-14T17:07:27.250Z,17.62
2023-05-14T17:09:53.903Z,17.61
2023-05-14T17:12:20.748Z,17.49
2023-05-14T17:14:47.439Z,17.49
2023-05-14T17:17:14.062Z,17.41
2023-05-14T17:19:41.192Z,17.41
2023-05-14T17:22:08.034Z,17.38
2023-05-14T17:24:36.585Z,17.39
2023-05-14T17:27:03.468Z,17.35
2023-05-14T17:29:30.157Z,17.34
2023-05-14T17:31:56.970Z,17.08
2023-05-14T17:34:24.306Z,17.12
2023-05-14T17:36:51.240Z,17.14
2023-05-14T17:39:17.905Z,17.05
2023-05-14T17:41:44.615Z,16.96
2023-05-14T17:46:42.816Z,16.83
2023-05-14T17:49:09.536Z,16.83
2023-05-14T17:51:36.188Z,16.75
2023-05-14T17:54:02.848Z,16.63
2023-05-14T17:56:29.732Z,16.55
2023-05-14T17:58:56.517Z,16.53
2023-05-14T18:01:23.289Z,16.51
2023-05-14T18:03:50.112Z,16.47
2023-05-14T18:06:17.060Z,16.39
2023-05-14T18:08:43.815Z,16.28
2023-05-14T18:11:10.463Z,16.25
2023-05-14T18:13:37.087Z,16.21
2023-05-14T18:16:04.135Z,16.20
2023-05-14T18:18:31.171Z,16.17
2023-05-14T18:20:58.401Z,16.08
2023-05-14T18:23:25.059Z,16.09
2023-05-14T18:25:51.999Z,15.97
2023-05-14T18:28:19.223Z,16.33
2023-05-14T18:30:45.983Z,16.46
2023-05-14T18:33:12.734Z,16.64
2023-05-14T18:35:39.536Z,16.44
2023-05-14T18:38:08.162Z,16.22
2023-05-14T18:40:35.126Z,15.96
2023-05-14T18:43:01.852Z,15.81
2023-05-14T18:45:28.656Z,15.62
2023-05-14T18:47:55.727Z,15.57
2023-05-14T18:50:22.516Z,15.50
2023-05-14T18:52:49.390Z,15.18
2023-05-14T18:55:16.106Z,15.04
2023-05-14T18:57:42.777Z,15.10
2023-05-14T19:00:10.114Z,15.10
2023-05-14T19:02:36.846Z,14.97
2023-05-14T19:05:03.666Z,15.00
2023-05-14T19:07:31.245Z,14.96
2023-05-14T19:09:57.874Z,15.05
2023-05-14T19:12:24.510Z,14.89
2023-05-14T19:14:51.200Z,14.82
2023-05-14T19:17:19.924Z,14.87
2023-05-14T19:19:47.279Z,14.73
2023-05-14T19:22:13.975Z,14.60
2023-05-14T19:24:40.708Z,14.55
2023-05-14T19:27:08.060Z,14.56
2023-05-14T19:29:37.096Z,14.45
2023-05-14T19:32:04.864Z,14.50
2023-05-14T19:34:31.548Z,14.51
2023-05-14T19:36:58.239Z,14.30
2023-05-14T19:39:24.893Z,14.42
2023-05-14T19:41:51.528Z,14.46
2023-05-14T19:44:18.261Z,14.31
2023-05-14T19:46:45.432Z,14.25
2023-05-14T19:49:12.329Z,14.17
2023-05-14T19:51:39.032Z,14.10
2023-05-14T19:54:06.044Z,14.32
2023-05-14T19:56:32.790Z,14.33
2023-05-14T19:58:59.438Z,14.41
2023-05-14T20:01:26.930Z,14.24
2023-05-14T20:03:53.637Z,14.15
2023-05-14T20:06:20.254Z,14.19
2023-05-14T20:08:46.913Z,13.99
2023-05-14T20:11:15.681Z,14.01
2023-05-14T20:13:42.479Z,14.03
2023-05-14T20:16:09.209Z,13.68
2023-05-14T20:18:36.393Z,13.65
2023-05-14T20:21:03.143Z,13.59
2023-05-14T20:23:29.741Z,13.74
2023-05-14T20:25:56.431Z,13.50
2023-05-14T20:28:23.034Z,13.45
2023-05-14T20:33:22.157Z,13.20
2023-05-14T20:35:50.360Z,13.10
2023-05-14T20:38:18.742Z,13.06
2023-05-14T20:40:45.616Z,13.12
2023-05-14T20:45:43.798Z,12.99
2023-05-14T20:48:12.376Z,13.08
2023-05-14T20:50:39.089Z,13.01
2023-05-14T20:53:06.045Z,13.06
2023-05-14T20:58:09.910Z,12.95
2023-05-14T21:00:36.637Z,12.77
2023-05-14T21:03:03.639Z,12.76
2023-05-14T21:05:30.376Z,13.01
2023-05-14T21:07:57.101Z,12.94
2023-05-14T21:10:24.042Z,12.86
2023-05-14T21:15:27.470Z,12.70
2023-05-14T21:17:54.496Z,13.03
2023-05-14T21:20:21.234Z,12.89
2023-05-14T21:22:47.938Z,12.93
2023-05-14T21:25:14.697Z,12.79
2023-05-14T21:27:41.706Z,12.72
2023-05-14T21:30:08.955Z,12.66
2023-05-14T21:32:35.643Z,12.72
2023-05-14T21:35:02.349Z,12.85
2023-05-14T21:37:29.150Z,12.86
2023-05-14T21:39:56.022Z,12.86
2023-05-14T21:42:22.740Z,12.94
2023-05-14T21:44:49.454Z,13.00
2023-05-14T21:47:16.528Z,13.00
2023-05-14T21:49:43.560Z,13.12
2023-05-14T21:52:10.290Z,13.03
2023-05-14T21:54:36.992Z,13.07
2023-05-14T21:57:03.917Z,13.01
2023-05-14T21:59:30.664Z,13.10
2023-05-14T22:02:07.008Z,13.21
2023-05-14T22:04:34.534Z,13.20
2023-05-14T22:07:01.798Z,13.13
2023-05-14T22:09:28.503Z,13.08
2023-05-14T22:11:55.131Z,13.10
2023-05-14T22:14:21.839Z,13.12
2023-05-14T22:16:48.724Z,13.07
2023-05-14T22:19:16.867Z,13.03
2023-05-14T22:21:43.606Z,13.04
2023-05-14T22:26:41.479Z,13.01
2023-05-14T22:29:08.172Z,13.00
2023-05-14T22:31:34.860Z,13.02
2023-05-14T22:36:34.185Z,13.01
2023-05-14T22:39:01.160Z,12.78
2023-05-14T22:41:28.154Z,12.85
2023-05-14T22:43:54.895Z,12.73
2023-05-14T22:46:21.735Z,12.73
2023-05-14T22:48:49.407Z,12.63
2023-05-14T22:51:16.577Z,12.42
2023-05-14T22:53:43.349Z,12.53
2023-05-14T22:56:10.069Z,12.49
2023-05-14T22:58:36.705Z,12.45
2023-05-14T23:01:03.749Z,12.46
2023-05-14T23:03:30.749Z,12.22
2023-05-14T23:05:57.508Z,12.30
2023-05-14T23:08:24.196Z,12.08
2023-05-14T23:10:50.864Z,12.18
2023-05-14T23:13:17.650Z,12.02
2023-05-14T23:15:44.439Z,11.90
2023-05-14T23:18:11.136Z,11.74
2023-05-14T23:20:37.847Z,11.66
2023-05-14T23:23:05.129Z,11.54
2023-05-14T23:25:32.687Z,11.63
2023-05-14T23:27:59.390Z,11.58
2023-05-14T23:44:08.592Z,11.55
2023-05-14T23:46:35.335Z,11.42
2023-05-14T23:49:02.064Z,11.44
2023-05-14T23:51:28.784Z,11.46
2023-05-14T23:53:58.738Z,11.43
2023-05-14T23:56:26.364Z,11.43
